Time;durP1;ratioP1;P1;durP2;ratioP2;P2;SDS_P1;SDS_P2;PMS_P1;PMS_P2;Temp;Humidity;BMP_temperature;BMP_pressure;BME280_temperature;BME280_humidity;BME280_pressure;Samples;Min_cycle;Max_cycle;Signal;HPM_P1;HPM_P2
2021/07/07 00:10:55;;;;;;;2.67;2.37;;;17.60;99.90;;;;;;6335799;22;20414;-94
2021/07/07 00:16:51;;;;;;;3.10;2.80;;;17.50;99.90;;;;;;6293305;22;20431;-95
2021/07/07 00:19:46;;;;;;;3.80;2.77;;;17.60;99.90;;;;;;6304901;22;20364;-93
2021/07/07 00:22:14;;;;;;;3.37;3.07;;;17.70;99.90;;;;;;6259677;22;20424;-91
2021/07/07 00:24:40;;;;;;;2.87;2.60;;;17.60;99.90;;;;;;6277075;22;20415;-90
2021/07/07 00:27:11;;;;;;;3.70;2.70;;;17.60;99.90;;;;;;6277879;22;20470;-91
2021/07/07 00:29:40;;;;;;;3.77;2.50;;;17.60;99.90;;;;;;6276632;22;20406;-91
2021/07/07 00:32:08;;;;;;;2.63;2.43;;;17.70;99.90;;;;;;6271244;22;20443;-91
2021/07/07 00:34:34;;;;;;;3.80;2.80;;;17.70;99.90;;;;;;6248105;23;20405;-91
2021/07/07 00:37:02;;;;;;;3.63;2.33;;;17.80;99.90;;;;;;6250646;23;20439;-91
2021/07/07 00:39:31;;;;;;;3.10;2.90;;;17.80;99.90;;;;;;6271847;22;20404;-91
2021/07/07 00:41:58;;;;;;;3.10;2.80;;;17.80;99.90;;;;;;6247960;22;20392;-92
2021/07/07 00:44:28;;;;;;;3.23;3.00;;;17.80;99.90;;;;;;6246227;23;20483;-91
2021/07/07 00:46:56;;;;;;;3.90;2.40;;;17.80;99.90;;;;;;6246003;23;20886;-91
2021/07/07 00:49:23;;;;;;;5.23;3.20;;;17.80;99.90;;;;;;6246599;23;20407;-91
2021/07/07 00:51:50;;;;;;;3.73;3.00;;;17.80;99.90;;;;;;6245882;22;20446;-91
2021/07/07 00:54:17;;;;;;;3.93;3.00;;;17.80;99.90;;;;;;6245617;23;20392;-91
2021/07/07 00:56:49;;;;;;;3.47;3.17;;;17.80;99.90;;;;;;6245577;23;20422;-91
2021/07/07 00:59:21;;;;;;;2.83;2.63;;;17.90;99.90;;;;;;6246085;23;20887;-91
2021/07/07 01:01:51;;;;;;;10.83;3.10;;;17.90;99.90;;;;;;6252739;22;20388;-91
2021/07/07 01:04:19;;;;;;;4.27;3.33;;;17.80;99.90;;;;;;6248986;23;20394;-91
2021/07/07 01:06:48;;;;;;;3.43;3.13;;;17.60;99.90;;;;;;6246758;23;20397;-91
2021/07/07 01:09:15;;;;;;;3.30;3.00;;;17.50;99.90;;;;;;6263966;22;20466;-90
2021/07/07 01:11:42;;;;;;;3.50;3.20;;;17.50;99.90;;;;;;6263200;22;20440;-91
2021/07/07 01:14:09;;;;;;;3.00;2.80;;;17.50;99.90;;;;;;6248098;22;20519;-92
2021/07/07 01:16:42;;;;;;;3.50;3.03;;;17.50;99.90;;;;;;6260866;23;20804;-91
2021/07/07 01:19:09;;;;;;;4.60;3.20;;;17.50;99.90;;;;;;6253396;23;20396;-91
2021/07/07 01:21:43;;;;;;;3.93;3.20;;;17.40;99.90;;;;;;6246688;23;20400;-92
2021/07/07 01:24:09;;;;;;;5.33;3.50;;;17.40;99.90;;;;;;6245861;22;20440;-91
2021/07/07 01:26:36;;;;;;;4.10;3.37;;;17.40;99.90;;;;;;6245986;23;20491;-91
2021/07/07 01:29:04;;;;;;;3.93;3.40;;;17.40;99.90;;;;;;6250992;23;20392;-92
2021/07/07 01:31:31;;;;;;;5.57;3.43;;;17.40;99.90;;;;;;6262001;22;20431;-91
2021/07/07 01:34:00;;;;;;;4.00;3.47;;;17.40;99.90;;;;;;6274332;22;20484;-92
2021/07/07 01:36:29;;;;;;;7.03;3.87;;;17.30;99.90;;;;;;6267051;23;20424;-92
2021/07/07 01:39:04;;;;;;;7.10;4.20;;;17.30;99.90;;;;;;6246076;23;20398;-91
2021/07/07 01:41:31;;;;;;;4.80;4.30;;;17.20;99.90;;;;;;6245252;23;20411;-92
2021/07/07 01:43:58;;;;;;;4.50;3.73;;;17.20;99.90;;;;;;6245163;22;20424;-91
2021/07/07 01:46:24;;;;;;;6.67;4.23;;;17.30;99.90;;;;;;6244594;23;20419;-92
2021/07/07 01:48:53;;;;;;;5.03;3.83;;;17.30;99.90;;;;;;6244536;23;20500;-91
2021/07/07 01:51:20;;;;;;;5.30;3.83;;;17.30;99.90;;;;;;6266683;22;20459;-91
2021/07/07 01:53:48;;;;;;;5.10;4.10;;;17.30;99.90;;;;;;6259536;22;20464;-91
2021/07/07 01:56:39;;;;;;;3.97;3.57;;;17.40;99.90;;;;;;5116006;28;20541;-89
2021/07/07 01:59:07;;;;;;;5.73;3.50;;;17.50;99.90;;;;;;5110154;28;20507;-91
2021/07/07 02:01:36;;;;;;;4.43;3.57;;;17.50;99.90;;;;;;5113945;28;20427;-90
2021/07/07 02:04:06;;;;;;;4.70;4.00;;;17.50;99.90;;;;;;5108133;28;20451;-90
2021/07/07 02:06:33;;;;;;;4.67;4.17;;;17.50;99.90;;;;;;5091531;28;20450;-90
2021/07/07 02:09:00;;;;;;;4.27;3.87;;;17.50;99.90;;;;;;5090996;28;20470;-91
2021/07/07 02:11:30;;;;;;;4.17;3.87;;;17.50;99.90;;;;;;5090731;28;20457;-91
2021/07/07 02:14:08;;;;;;;7.40;4.70;;;17.60;99.90;;;;;;5089921;28;20541;-90
2021/07/07 02:16:38;;;;;;;4.80;4.40;;;17.60;99.90;;;;;;5089929;28;20454;-89
2021/07/07 02:19:06;;;;;;;6.37;4.70;;;17.50;99.90;;;;;;5071671;28;20444;-90
2021/07/07 02:21:33;;;;;;;7.10;4.90;;;17.60;99.90;;;;;;5070116;28;20435;-91
2021/07/07 02:24:00;;;;;;;4.87;4.30;;;17.50;99.90;;;;;;5078244;28;20850;-90
2021/07/07 02:26:27;;;;;;;6.03;5.40;;;17.50;99.90;;;;;;5071858;28;20476;-91
2021/07/07 02:28:54;;;;;;;4.23;3.50;;;17.50;99.90;;;;;;5087613;28;20439;-90
2021/07/07 02:31:25;;;;;;;4.30;4.00;;;17.50;99.90;;;;;;5099533;28;20485;-90
2021/07/07 02:33:52;;;;;;;5.27;4.03;;;17.50;99.90;;;;;;5094701;28;20473;-90
2021/07/07 02:36:19;;;;;;;8.20;4.40;;;17.50;99.90;;;;;;5089925;28;21079;-89
2021/07/07 02:38:45;;;;;;;5.70;4.70;;;17.50;99.90;;;;;;5083202;28;20940;-90
2021/07/07 02:41:12;;;;;;;4.60;4.10;;;17.50;99.90;;;;;;5075080;28;20436;-91
2021/07/07 02:43:39;;;;;;;5.57;4.23;;;17.50;99.90;;;;;;5069605;28;20474;-90
2021/07/07 02:46:07;;;;;;;4.43;3.90;;;17.50;99.90;;;;;;5069282;28;20531;-90
2021/07/07 02:48:36;;;;;;;8.57;5.33;;;17.50;99.90;;;;;;5088096;28;20486;-91
2021/07/07 02:51:05;;;;;;;4.60;4.20;;;17.50;99.90;;;;;;5075582;28;20494;-91
2021/07/07 02:53:31;;;;;;;6.10;4.17;;;17.50;99.90;;;;;;5077966;28;20467;-90
2021/07/07 02:55:58;;;;;;;5.83;4.33;;;17.50;99.90;;;;;;5068747;28;20538;-90
2021/07/07 02:58:25;;;;;;;4.13;3.83;;;17.50;99.90;;;;;;5073028;28;20973;-90
2021/07/07 03:00:52;;;;;;;4.93;4.20;;;17.50;99.90;;;;;;5069144;28;20455;-89
2021/07/07 03:03:22;;;;;;;9.23;3.90;;;17.50;99.90;;;;;;5069696;28;20459;-89
2021/07/07 03:05:54;;;;;;;4.60;4.30;;;17.50;99.90;;;;;;5066320;28;20532;-92
2021/07/07 03:08:22;;;;;;;7.40;4.90;;;17.40;99.90;;;;;;5066982;28;20458;-90
2021/07/07 03:10:49;;;;;;;5.23;4.73;;;17.40;99.90;;;;;;5074689;28;20458;-90
2021/07/07 03:13:17;;;;;;;5.43;4.97;;;17.50;99.90;;;;;;5075334;28;20818;-91
2021/07/07 03:15:44;;;;;;;7.87;5.47;;;17.50;99.90;;;;;;5092601;28;20485;-90
2021/07/07 03:18:12;;;;;;;7.10;4.90;;;17.40;99.90;;;;;;5081890;28;20442;-92
2021/07/07 03:20:41;;;;;;;9.20;5.57;;;17.40;99.90;;;;;;5057480;28;20448;-92
2021/07/07 03:23:11;;;;;;;5.93;5.20;;;17.30;99.90;;;;;;5079108;28;20508;-91
2021/07/07 03:25:38;;;;;;;6.90;6.00;;;17.30;99.90;;;;;;5068214;28;20474;-91
2021/07/07 03:28:06;;;;;;;7.53;5.90;;;17.30;99.90;;;;;;5067579;28;20477;-91
2021/07/07 03:30:34;;;;;;;7.47;6.70;;;17.00;99.90;;;;;;5078786;28;20454;-91
2021/07/07 03:33:08;;;;;;;7.40;6.37;;;16.90;99.90;;;;;;5062913;28;20887;-90
2021/07/07 03:35:42;;;;;;;6.93;6.33;;;16.80;99.90;;;;;;5078848;28;20460;-92
2021/07/07 03:38:10;;;;;;;6.97;6.27;;;16.90;99.90;;;;;;5076756;28;20542;-92
2021/07/07 03:40:44;;;;;;;6.97;6.27;;;16.90;99.90;;;;;;5075160;28;20538;-90
2021/07/07 03:43:12;;;;;;;8.13;7.33;;;16.90;99.90;;;;;;5084046;28;20528;-89
2021/07/07 03:45:41;;;;;;;7.83;6.77;;;16.90;99.90;;;;;;5062590;28;21000;-89
2021/07/07 03:48:10;;;;;;;7.53;6.83;;;17.00;99.90;;;;;;5054933;28;20445;-90
2021/07/07 03:50:42;;;;;;;6.80;6.10;;;17.00;99.90;;;;;;5054724;28;20452;-89
2021/07/07 03:53:18;;;;;;;7.50;6.87;;;17.10;99.90;;;;;;5054900;28;20552;-89
2021/07/07 03:55:44;;;;;;;6.37;5.77;;;17.10;99.90;;;;;;5067370;28;20470;-89
2021/07/07 03:58:14;;;;;;;7.10;5.80;;;17.10;99.90;;;;;;5074667;28;20442;-90
2021/07/07 04:00:41;;;;;;;7.83;5.93;;;17.10;99.90;;;;;;5073770;28;20443;-91
2021/07/07 04:03:11;;;;;;;6.63;5.30;;;17.10;99.90;;;;;;5077442;28;21135;-91
2021/07/07 04:05:41;;;;;;;6.60;5.73;;;17.00;99.90;;;;;;5066365;28;20445;-92
2021/07/07 04:08:07;;;;;;;6.40;5.77;;;17.00;99.90;;;;;;5060256;28;20809;-91
2021/07/07 04:10:36;;;;;;;7.37;6.03;;;17.00;99.90;;;;;;5063070;28;20487;-91
2021/07/07 04:13:06;;;;;;;7.17;5.93;;;17.00;99.90;;;;;;5061640;28;20917;-91
2021/07/07 04:15:33;;;;;;;5.40;5.00;;;17.00;99.90;;;;;;5071463;28;20482;-92
2021/07/07 04:17:59;;;;;;;5.43;4.93;;;16.90;99.90;;;;;;5072766;28;20423;-90
2021/07/07 04:20:26;;;;;;;4.90;4.33;;;16.90;99.90;;;;;;5074139;28;20527;-90
2021/07/07 04:22:53;;;;;;;4.90;4.50;;;16.90;99.90;;;;;;5073368;28;20463;-90
2021/07/07 04:25:20;;;;;;;7.03;4.70;;;16.90;99.90;;;;;;5060963;28;20466;-90
2021/07/07 04:27:48;;;;;;;4.60;4.20;;;16.90;99.90;;;;;;5054119;28;20942;-90
2021/07/07 04:30:17;;;;;;;4.40;4.00;;;16.90;99.90;;;;;;5054738;28;20448;-89
2021/07/07 04:32:45;;;;;;;4.37;4.00;;;16.90;99.90;;;;;;5072630;28;20477;-89
2021/07/07 04:35:13;;;;;;;6.30;4.30;;;17.00;99.90;;;;;;5074565;28;20486;-91
2021/07/07 04:37:40;;;;;;;4.90;4.40;;;17.00;99.90;;;;;;5073535;28;20477;-89
2021/07/07 04:40:08;;;;;;;3.97;3.23;;;17.00;99.90;;;;;;5089840;28;20438;-89
2021/07/07 04:42:35;;;;;;;4.30;3.90;;;17.10;99.90;;;;;;5083644;28;20469;-89
2021/07/07 04:45:03;;;;;;;3.90;3.63;;;17.20;99.90;;;;;;5060395;28;20872;-90
2021/07/07 04:47:30;;;;;;;3.33;3.13;;;17.10;99.90;;;;;;5075913;28;20425;-89
2021/07/07 04:49:57;;;;;;;4.93;3.30;;;17.20;99.90;;;;;;5062756;28;20464;-90
2021/07/07 04:52:24;;;;;;;2.93;2.50;;;17.20;99.90;;;;;;5058429;28;20475;-90
2021/07/07 04:54:50;;;;;;;4.63;2.70;;;17.20;99.90;;;;;;5054793;28;20459;-90
2021/07/07 04:57:17;;;;;;;2.97;2.77;;;17.10;99.90;;;;;;5053548;28;20543;-90
2021/07/07 04:59:44;;;;;;;3.43;3.07;;;17.20;99.90;;;;;;5053560;28;20455;-90
2021/07/07 05:02:12;;;;;;;2.83;2.57;;;17.20;99.90;;;;;;5075068;28;20475;-85
2021/07/07 05:04:39;;;;;;;4.30;3.10;;;17.20;99.90;;;;;;5076468;28;20458;-84
2021/07/07 05:07:05;;;;;;;4.00;3.20;;;17.20;99.90;;;;;;5074263;28;20439;-83
2021/07/07 05:09:32;;;;;;;3.20;3.00;;;17.10;99.90;;;;;;5059652;28;20444;-82
2021/07/07 05:11:59;;;;;;;3.03;2.70;;;17.10;99.90;;;;;;5069148;28;20460;-83
2021/07/07 05:14:26;;;;;;;3.00;2.70;;;17.10;99.90;;;;;;5065602;28;20452;-81
2021/07/07 05:16:52;;;;;;;4.60;2.87;;;17.10;99.90;;;;;;5056111;28;20481;-83
2021/07/07 05:19:20;;;;;;;2.53;2.33;;;17.10;99.90;;;;;;5055715;28;20448;-83
2021/07/07 05:21:47;;;;;;;4.87;2.50;;;17.00;99.90;;;;;;5059530;28;20444;-83
2021/07/07 05:24:14;;;;;;;4.07;3.77;;;16.80;99.90;;;;;;5059609;28;20476;-84
2021/07/07 05:26:40;;;;;;;4.50;4.00;;;16.80;99.90;;;;;;5058290;28;20524;-84
2021/07/07 05:29:07;;;;;;;3.60;3.30;;;16.90;99.90;;;;;;5058944;28;20448;-84
2021/07/07 05:31:34;;;;;;;3.40;3.20;;;17.00;99.90;;;;;;5057224;28;20459;-84
2021/07/07 05:34:00;;;;;;;3.17;2.97;;;17.00;99.90;;;;;;5057584;28;20860;-84
2021/07/07 05:36:28;;;;;;;4.07;3.13;;;17.10;99.90;;;;;;5057338;28;20483;-83
2021/07/07 05:38:55;;;;;;;3.27;2.97;;;17.20;99.90;;;;;;5055516;28;20440;-83
2021/07/07 05:41:22;;;;;;;3.57;2.87;;;17.20;99.90;;;;;;5055856;28;20445;-83
2021/07/07 05:43:52;;;;;;;3.13;2.93;;;17.30;99.90;;;;;;5056443;28;20464;-83
2021/07/07 05:46:19;;;;;;;3.70;3.20;;;17.40;99.90;;;;;;5064170;28;20451;-85
2021/07/07 05:48:46;;;;;;;3.30;3.00;;;17.50;99.90;;;;;;5056878;28;20460;-90
2021/07/07 05:51:13;;;;;;;2.47;2.27;;;17.50;99.90;;;;;;5053654;28;20457;-89
2021/07/07 05:53:41;;;;;;;6.30;3.03;;;17.20;99.90;;;;;;5055235;28;20522;-83
2021/07/07 05:56:08;;;;;;;3.57;3.27;;;17.10;99.90;;;;;;5055846;28;20856;-81
2021/07/07 05:58:35;;;;;;;3.97;3.00;;;17.30;99.90;;;;;;5053472;28;20530;-81
2021/07/07 06:01:02;;;;;;;3.90;2.93;;;17.40;99.90;;;;;;5055319;28;20444;-81
2021/07/07 06:03:28;;;;;;;4.50;3.27;;;17.40;99.90;;;;;;5055893;28;20490;-81
2021/07/07 06:05:55;;;;;;;3.73;3.00;;;17.40;99.90;;;;;;5054229;28;20440;-81
2021/07/07 06:08:22;;;;;;;3.13;2.90;;;17.40;99.90;;;;;;5054925;28;20452;-81
2021/07/07 06:10:50;;;;;;;13.17;3.63;;;17.40;99.90;;;;;;5054913;28;20459;-81
2021/07/07 06:13:17;;;;;;;4.20;2.87;;;17.40;99.90;;;;;;5055809;28;20472;-86
2021/07/07 06:15:45;;;;;;;3.10;2.43;;;17.50;99.90;;;;;;5053451;28;20534;-86
2021/07/07 06:18:12;;;;;;;5.07;3.10;;;17.60;99.90;;;;;;5052230;28;20433;-85
2021/07/07 06:20:40;;;;;;;3.80;2.40;;;17.60;99.90;;;;;;5059482;28;20449;-85
2021/07/07 06:23:07;;;;;;;3.10;2.60;;;17.60;99.90;;;;;;5053573;28;20466;-85
2021/07/07 06:25:35;;;;;;;2.80;2.50;;;17.60;99.90;;;;;;5054053;28;20453;-85
2021/07/07 06:28:07;;;;;;;4.03;2.83;;;17.60;99.90;;;;;;5057508;28;20462;-86
2021/07/07 06:30:34;;;;;;;2.80;2.40;;;17.60;99.90;;;;;;5073454;28;20907;-86
2021/07/07 06:33:03;;;;;;;2.97;2.20;;;17.60;99.90;;;;;;5073728;28;20562;-85
2021/07/07 06:35:35;;;;;;;2.87;2.40;;;17.80;99.90;;;;;;5073047;28;20578;-85
2021/07/07 06:38:03;;;;;;;4.20;3.00;;;17.90;99.90;;;;;;5063557;28;20448;-86
2021/07/07 06:40:31;;;;;;;3.10;2.37;;;18.10;99.90;;;;;;5066028;28;20804;-86
2021/07/07 06:42:58;;;;;;;4.60;4.20;;;18.20;99.90;;;;;;5058335;28;20476;-85
2021/07/07 06:45:28;;;;;;;2.60;2.10;;;18.40;99.90;;;;;;5057628;28;21007;-86
2021/07/07 06:47:56;;;;;;;2.20;1.73;;;18.50;99.90;;;;;;5074268;28;20951;-86
2021/07/07 06:50:24;;;;;;;5.50;2.30;;;18.60;99.90;;;;;;5056953;28;20456;-85
2021/07/07 06:52:51;;;;;;;4.77;1.80;;;18.60;99.90;;;;;;5076383;28;20467;-86
2021/07/07 06:55:21;;;;;;;3.00;2.50;;;18.70;99.90;;;;;;5068494;28;20484;-85
2021/07/07 06:57:48;;;;;;;3.13;2.30;;;18.70;99.90;;;;;;5056870;28;20483;-85
2021/07/07 07:00:19;;;;;;;2.97;2.10;;;18.60;99.90;;;;;;5077037;28;20941;-85
2021/07/07 07:02:50;;;;;;;2.77;2.00;;;18.50;99.90;;;;;;5076120;28;20456;-85
2021/07/07 07:05:19;;;;;;;3.20;2.63;;;18.50;99.90;;;;;;5069378;28;20453;-85
2021/07/07 07:07:47;;;;;;;2.13;1.93;;;18.40;99.90;;;;;;5056920;28;20464;-85
2021/07/07 07:10:17;;;;;;;5.10;2.20;;;18.20;99.90;;;;;;5057471;28;20457;-85
2021/07/07 07:12:45;;;;;;;2.40;2.20;;;18.20;99.90;;;;;;5057094;28;20477;-88
2021/07/07 07:15:14;;;;;;;2.70;2.23;;;18.30;99.90;;;;;;5073332;28;20454;-88
2021/07/07 07:17:42;;;;;;;3.80;1.90;;;18.30;99.90;;;;;;5079213;28;20497;-88
2021/07/07 07:20:13;;;;;;;4.80;2.20;;;18.30;99.90;;;;;;5076690;28;20523;-88
2021/07/07 07:22:41;;;;;;;3.40;2.57;;;18.30;99.90;;;;;;5083443;28;20508;-88
2021/07/07 07:25:10;;;;;;;5.67;2.37;;;18.30;99.90;;;;;;5091762;28;20447;-88
2021/07/07 07:27:37;;;;;;;3.80;2.10;;;18.30;99.90;;;;;;5099550;28;20419;-87
2021/07/07 07:30:05;;;;;;;3.90;2.50;;;18.30;99.90;;;;;;5098580;28;20431;-88
2021/07/07 07:32:33;;;;;;;2.77;2.50;;;18.40;99.90;;;;;;5100402;28;20508;-88
2021/07/07 07:35:00;;;;;;;3.53;3.20;;;18.40;99.90;;;;;;5085232;28;20466;-88
2021/07/07 07:37:36;;;;;;;3.47;2.00;;;18.50;99.90;;;;;;5072200;28;20479;-89
2021/07/07 07:40:09;;;;;;;4.27;2.80;;;18.70;99.90;;;;;;5083444;28;20447;-89
2021/07/07 07:42:41;;;;;;;3.80;2.60;;;19.00;99.90;;;;;;5076024;28;20826;-89
2021/07/07 07:45:21;;;;;;;5.77;2.67;;;19.30;99.90;;;;;;5073181;28;20811;-88
2021/07/07 07:47:48;;;;;;;3.97;2.33;;;19.40;99.90;;;;;;5072403;28;20580;-89
2021/07/07 07:50:18;;;;;;;3.53;1.87;;;19.40;99.90;;;;;;5091288;28;20448;-89
2021/07/07 08:09:10;;;;;;;3.97;3.47;;;19.10;99.90;;;;;;5055489;28;20468;-90
2021/07/07 08:15:23;;;;;;;5.40;3.23;;;19.10;99.90;;;;;;5079419;28;20515;-88
2021/07/07 08:32:28;;;;;;;5.40;3.00;;;19.50;99.90;;;;;;4888312;29;20454;-89
2021/07/07 08:39:14;;;;;;;4.13;3.07;;;19.30;99.90;;;;;;4912272;29;20479;-89
2021/07/07 08:53:29;;;;;;;3.80;2.70;;;19.70;99.90;;;;;;4880079;29;20481;-89
2021/07/07 09:13:52;;;;;;;;;;;;;;;;;;;;;
2021/07/07 09:18:56;;;;;;;5.83;2.43;;;20.90;99.90;;;;;;5068788;23;20522;-88
2021/07/07 09:22:23;;;;;;;2.67;2.10;;;21.20;99.90;;;;;;4976488;28;20469;-84
2021/07/07 09:25:19;;;;;;;4.20;2.77;;;21.90;99.90;;;;;;4945502;28;20512;-83
2021/07/07 09:28:17;;;;;;;4.97;2.77;;;22.30;99.90;;;;;;4971874;28;20489;-82
2021/07/07 09:30:46;;;;;;;3.33;2.20;;;22.50;99.90;;;;;;4961209;28;20474;-82
2021/07/07 09:33:35;;;;;;;5.20;2.70;;;22.30;99.90;;;;;;4971142;28;20450;-82
2021/07/07 09:36:27;;;;;;;2.60;1.93;;;22.00;99.90;;;;;;4960109;28;20457;-82
2021/07/07 09:39:02;;;;;;;8.47;4.27;;;21.90;99.90;;;;;;4962327;28;20807;-83
2021/07/07 09:42:21;;;;;;;5.50;2.23;;;21.90;99.90;;;;;;4968935;28;20452;-83
2021/07/07 09:47:56;;;;;;;9.70;3.47;;;21.60;99.90;;;;;;4958274;28;20469;-83
2021/07/07 09:50:26;;;;;;;4.63;2.00;;;21.50;99.90;;;;;;4959972;28;20522;-83
2021/07/07 09:52:56;;;;;;;4.47;2.93;;;21.00;99.90;;;;;;4962152;28;20472;-85
2021/07/07 09:55:49;;;;;;;9.37;3.30;;;20.90;99.90;;;;;;4965361;28;20445;-84
2021/07/07 09:58:18;;;;;;;3.73;2.97;;;20.80;99.90;;;;;;4966996;28;20451;-88
2021/07/07 10:00:45;;;;;;;6.67;4.30;;;20.60;99.90;;;;;;4971857;28;20479;-89
2021/07/07 10:03:12;;;;;;;4.33;3.30;;;20.60;99.90;;;;;;4973097;28;20452;-89
2021/07/07 10:05:41;;;;;;;3.80;2.83;;;20.70;99.90;;;;;;4965898;28;20456;-87
2021/07/07 10:08:09;;;;;;;6.07;2.70;;;20.70;99.90;;;;;;4967268;28;20482;-88
2021/07/07 10:10:37;;;;;;;3.83;2.00;;;20.90;99.90;;;;;;4964595;29;20455;-89
2021/07/07 10:13:05;;;;;;;3.57;2.40;;;21.00;99.90;;;;;;4965636;29;20440;-88
2021/07/07 10:15:34;;;;;;;5.20;3.30;;;21.10;99.90;;;;;;4976888;28;20456;-90
2021/07/07 10:18:02;;;;;;;5.97;3.23;;;21.20;99.90;;;;;;4972758;28;20531;-88
2021/07/07 10:20:30;;;;;;;5.77;2.93;;;21.30;99.90;;;;;;4959802;29;20910;-88
2021/07/07 10:22:58;;;;;;;3.70;2.20;;;21.40;99.90;;;;;;4962589;29;20814;-89
2021/07/07 10:25:27;;;;;;;3.07;2.30;;;21.40;99.90;;;;;;4962986;29;20449;-89
2021/07/07 10:27:57;;;;;;;4.83;2.33;;;21.50;99.90;;;;;;4962126;28;20559;-89
2021/07/07 10:30:52;;;;;;;2.63;2.33;;;21.80;99.90;;;;;;4961604;28;20442;-89
2021/07/07 10:33:20;;;;;;;5.57;2.27;;;22.10;99.90;;;;;;4961305;28;20502;-89
2021/07/07 10:35:48;;;;;;;2.67;1.83;;;22.40;99.90;;;;;;4959814;29;20442;-89
2021/07/07 10:38:16;;;;;;;3.97;2.30;;;22.40;99.90;;;;;;4965143;28;20481;-89
2021/07/07 10:40:48;;;;;;;3.53;2.47;;;22.50;99.90;;;;;;4961254;29;20477;-89
2021/07/07 10:43:27;;;;;;;2.27;2.07;;;22.40;99.90;;;;;;4961913;28;20471;-89
2021/07/07 10:45:56;;;;;;;4.37;2.37;;;22.40;99.90;;;;;;4960714;29;20556;-89
2021/07/07 10:48:28;;;;;;;4.17;2.33;;;23.60;99.90;;;;;;4964750;28;20475;-89
2021/07/07 10:50:56;;;;;;;5.43;2.70;;;24.50;99.90;;;;;;4963959;28;20495;-90
2021/07/07 10:53:25;;;;;;;4.10;2.60;;;24.60;99.30;;;;;;4965034;29;20542;-89
2021/07/07 10:55:53;;;;;;;3.10;2.40;;;24.40;99.70;;;;;;4976137;28;20470;-90
2021/07/07 10:58:27;;;;;;;3.03;2.60;;;23.90;99.70;;;;;;4978078;28;20444;-89
2021/07/07 11:00:56;;;;;;;3.70;3.07;;;23.70;99.90;;;;;;4971935;28;20486;-89
2021/07/07 11:03:39;;;;;;;2.50;2.07;;;23.30;99.90;;;;;;4962498;28;21038;-88
2021/07/07 11:06:33;;;;;;;3.90;2.20;;;23.20;99.90;;;;;;4961932;28;20535;-89
2021/07/07 11:09:11;;;;;;;4.47;1.93;;;23.30;99.90;;;;;;4956783;29;20478;-89
2021/07/07 11:11:39;;;;;;;4.87;1.90;;;23.10;99.90;;;;;;4964514;29;20442;-89
2021/07/07 11:14:20;;;;;;;2.40;1.80;;;23.20;99.90;;;;;;4963872;28;20467;-90
2021/07/07 11:16:57;;;;;;;3.83;2.17;;;23.30;99.90;;;;;;4966171;28;20539;-90
2021/07/07 11:19:45;;;;;;;2.13;1.90;;;23.50;99.90;;;;;;4970604;28;20444;-89
2021/07/07 11:22:20;;;;;;;4.20;2.10;;;23.70;99.90;;;;;;4979961;29;20439;-89
2021/07/07 11:24:50;;;;;;;2.93;1.83;;;23.70;99.90;;;;;;4981457;28;20464;-89
2021/07/07 11:27:17;;;;;;;4.50;2.60;;;23.90;99.90;;;;;;4975174;28;20498;-89
2021/07/07 11:29:44;;;;;;;4.63;2.27;;;23.80;99.90;;;;;;4981481;28;20444;-89
2021/07/07 11:32:42;;;;;;;2.73;2.07;;;23.70;99.90;;;;;;4971841;28;20458;-90
2021/07/07 11:35:11;;;;;;;4.20;2.70;;;23.80;99.90;;;;;;4979194;28;20495;-89
2021/07/07 11:37:39;;;;;;;4.17;3.40;;;23.90;99.90;;;;;;4978351;28;20565;-90
2021/07/07 11:40:11;;;;;;;4.93;3.57;;;23.70;99.90;;;;;;4971989;28;20500;-89
2021/07/07 11:42:57;;;;;;;6.40;3.00;;;24.00;99.90;;;;;;4969672;29;20514;-90
2021/07/07 11:45:27;;;;;;;5.30;2.83;;;24.10;99.90;;;;;;4967415;29;20511;-89
2021/07/07 11:48:05;;;;;;;4.73;3.47;;;24.10;99.90;;;;;;4965825;29;20494;-90
2021/07/07 11:50:34;;;;;;;4.30;3.20;;;24.00;99.90;;;;;;4964649;28;21012;-89
2021/07/07 11:53:03;;;;;;;5.33;3.90;;;24.10;99.90;;;;;;4973255;28;20429;-89
2021/07/07 11:55:58;;;;;;;4.80;2.50;;;24.10;99.90;;;;;;4980383;28;20440;-90
2021/07/07 11:58:33;;;;;;;4.30;2.70;;;24.20;99.90;;;;;;4941138;28;20448;-89
2021/07/07 12:01:08;;;;;;;3.67;2.73;;;24.40;99.90;;;;;;4972767;29;20443;-90
2021/07/07 12:03:38;;;;;;;4.03;2.20;;;24.40;99.90;;;;;;4966524;28;20436;-89
2021/07/07 12:06:11;;;;;;;2.60;2.40;;;24.90;99.90;;;;;;4964476;28;20529;-89
2021/07/07 12:08:44;;;;;;;3.50;3.13;;;25.50;99.50;;;;;;4980104;28;20491;-89
2021/07/07 12:11:18;;;;;;;3.20;2.90;;;25.90;97.80;;;;;;4954845;28;20453;-89
2021/07/07 12:13:46;;;;;;;5.53;2.93;;;26.00;97.10;;;;;;4974243;28;20472;-91
2021/07/07 12:16:21;;;;;;;3.80;3.50;;;27.20;96.80;;;;;;4972126;28;20468;-89
2021/07/07 12:18:55;;;;;;;4.60;2.57;;;28.90;92.60;;;;;;4962663;28;20450;-90
2021/07/07 12:21:41;;;;;;;3.87;3.27;;;30.10;90.10;;;;;;4960429;28;20488;-90
2021/07/07 12:24:09;;;;;;;3.13;1.93;;;29.40;87.90;;;;;;4960947;28;20762;-90
2021/07/07 12:26:38;;;;;;;2.70;2.50;;;28.20;90.30;;;;;;4961395;28;20464;-89
2021/07/07 12:29:11;;;;;;;8.43;2.40;;;27.30;91.40;;;;;;4961348;29;20481;-90
2021/07/07 12:31:43;;;;;;;2.80;1.87;;;26.90;93.00;;;;;;4960720;28;20495;-89
2021/07/07 12:34:24;;;;;;;3.00;2.00;;;26.50;92.80;;;;;;4960797;29;20433;-89
2021/07/07 12:36:58;;;;;;;2.93;2.10;;;26.00;94.50;;;;;;4957747;28;20553;-88
2021/07/07 12:39:28;;;;;;;2.50;1.63;;;25.70;95.20;;;;;;4962954;28;20441;-88
2021/07/07 12:42:01;;;;;;;2.13;1.80;;;25.30;95.80;;;;;;4969757;28;20436;-90
2021/07/07 12:44:31;;;;;;;2.00;1.80;;;25.00;96.80;;;;;;4977961;28;20460;-89
2021/07/07 12:47:01;;;;;;;2.50;2.30;;;24.80;97.80;;;;;;4975581;28;20532;-92
2021/07/07 12:49:52;;;;;;;2.80;2.60;;;24.50;97.40;;;;;;4965119;28;20472;-90
2021/07/07 12:55:47;;;;;;;4.87;2.27;;;25.50;98.00;;;;;;4960716;28;20437;-89
2021/07/07 12:58:16;;;;;;;5.10;2.13;;;27.80;94.80;;;;;;4963654;28;20485;-90
2021/07/07 13:00:46;;;;;;;2.63;1.90;;;29.10;91.20;;;;;;4959152;29;20449;-90
2021/07/07 13:03:15;;;;;;;4.67;2.50;;;30.00;87.60;;;;;;4960035;29;20485;-90
2021/07/07 13:05:52;;;;;;;2.80;2.00;;;30.30;84.80;;;;;;4951753;29;20445;-90
2021/07/07 13:08:27;;;;;;;3.20;2.40;;;29.80;85.00;;;;;;4955126;29;21028;-90
2021/07/07 13:10:55;;;;;;;3.67;1.70;;;29.70;87.20;;;;;;4952268;28;20466;-90
2021/07/07 13:13:30;;;;;;;1.33;1.23;;;29.10;86.80;;;;;;4959971;28;20455;-90
2021/07/07 13:16:02;;;;;;;2.97;2.77;;;29.70;85.60;;;;;;4960521;28;20452;-90
2021/07/07 13:18:33;;;;;;;1.73;1.43;;;29.50;83.40;;;;;;4959586;28;20508;-90
2021/07/07 13:21:03;;;;;;;2.80;1.10;;;29.30;85.10;;;;;;4959422;28;20421;-89
2021/07/07 13:23:32;;;;;;;1.80;1.00;;;29.30;86.50;;;;;;4965918;28;20445;-91
2021/07/07 13:26:23;;;;;;;3.00;1.30;;;28.70;86.10;;;;;;4959435;28;20464;-88
2021/07/07 13:28:51;;;;;;;1.97;1.47;;;28.20;87.50;;;;;;4954325;29;20824;-88
2021/07/07 13:31:21;;;;;;;2.23;1.83;;;27.70;89.00;;;;;;4958280;28;20467;-88
2021/07/07 13:33:49;;;;;;;2.73;1.90;;;28.00;90.60;;;;;;4959471;28;20451;-89
2021/07/07 13:36:18;;;;;;;3.83;1.80;;;29.00;87.80;;;;;;4958302;28;20480;-88
2021/07/07 13:38:45;;;;;;;1.80;1.60;;;29.10;86.70;;;;;;4959365;28;20465;-88
2021/07/07 13:41:12;;;;;;;4.03;1.80;;;28.20;87.70;;;;;;4967949;28;20501;-89
2021/07/07 13:43:42;;;;;;;1.20;1.10;;;27.50;90.40;;;;;;4979056;28;20993;-90
2021/07/07 13:46:10;;;;;;;1.50;1.30;;;28.80;88.90;;;;;;4960483;28;20448;-89
2021/07/07 13:48:43;;;;;;;1.53;1.20;;;30.50;84.70;;;;;;4956296;28;20847;-88
2021/07/07 13:51:10;;;;;;;1.90;1.63;;;30.60;81.50;;;;;;4958106;28;20467;-89
2021/07/07 13:53:39;;;;;;;1.40;0.97;;;30.00;83.10;;;;;;4960944;29;20433;-89
2021/07/07 14:01:57;;;;;;;2.73;1.53;;;30.00;83.20;;;;;;4949167;28;20444;-83
2021/07/07 14:04:36;;;;;;;1.73;1.60;;;29.40;82.60;;;;;;4958460;29;20481;-82
2021/07/07 14:07:19;;;;;;;2.00;1.17;;;28.00;85.80;;;;;;4950358;29;20550;-83
2021/07/07 14:09:55;;;;;;;2.57;1.70;;;27.10;89.20;;;;;;4948428;28;20451;-84
2021/07/07 14:12:22;;;;;;;3.23;1.30;;;26.40;90.30;;;;;;4957206;29;20488;-82
2021/07/07 14:14:54;;;;;;;1.40;1.20;;;26.10;91.40;;;;;;4958670;28;20504;-83
2021/07/07 14:21:09;;;;;;;1.83;1.10;;;26.50;92.10;;;;;;4915816;29;20426;-84
2021/07/07 14:23:36;;;;;;;1.30;1.10;;;26.10;91.20;;;;;;4947146;29;20463;-84
2021/07/07 14:26:09;;;;;;;1.20;0.90;;;25.60;92.30;;;;;;4944519;29;20477;-85
2021/07/07 14:28:37;;;;;;;1.97;1.00;;;25.80;93.00;;;;;;4943406;29;20513;-85
2021/07/07 14:31:11;;;;;;;3.80;1.87;;;26.00;92.50;;;;;;4948499;29;20446;-83
2021/07/07 14:33:47;;;;;;;1.80;1.23;;;25.50;93.00;;;;;;4950637;29;20480;-82
2021/07/07 14:36:21;;;;;;;3.40;1.90;;;25.10;94.10;;;;;;4950998;29;20461;-84
2021/07/07 14:39:01;;;;;;;2.50;1.17;;;25.10;95.00;;;;;;4947937;29;20438;-84
2021/07/07 14:41:42;;;;;;;2.70;1.07;;;24.80;94.90;;;;;;4946402;29;20454;-86
2021/07/07 14:44:22;;;;;;;1.20;1.00;;;24.70;95.20;;;;;;4946245;29;20453;-84
2021/07/07 14:46:56;;;;;;;1.63;1.47;;;24.60;95.50;;;;;;4946606;29;20464;-83